Time;durP1;ratioP1;P1;durP2;ratioP2;P2;SDS_P1;SDS_P2;PMS_P1;PMS_P2;Temp;Humidity;BMP_temperature;BMP_pressure;BME280_temperature;BME280_humidity;BME280_pressure;Samples;Min_cycle;Max_cycle;Signal;HPM_P1;HPM_P2
2022/08/06 00:00:22;;;;;;;23.08;21.60;;;;;;;;;;5094191;28;20205;-78
2022/08/06 00:02:49;;;;;;;22.60;21.20;;;;;;;;;;5094122;28;20686;-76
2022/08/06 00:05:18;;;;;;;22.40;21.00;;;;;;;;;;5094105;28;20193;-78
2022/08/06 00:07:45;;;;;;;23.25;21.75;;;;;;;;;;5093956;28;20193;-77
2022/08/06 00:10:12;;;;;;;22.17;20.77;;;;;;;;;;5093912;28;20276;-77
2022/08/06 00:12:39;;;;;;;21.98;20.60;;;;;;;;;;5094229;28;20629;-77
2022/08/06 00:15:07;;;;;;;22.30;20.90;;;;;;;;;;5094199;28;20198;-78
2022/08/06 00:17:34;;;;;;;21.63;20.33;;;;;;;;;;5093607;28;20226;-79
2022/08/06 00:20:01;;;;;;;22.15;20.83;;;;;;;;;;5093706;28;20200;-78
2022/08/06 00:22:30;;;;;;;22.00;20.60;;;;;;;;;;5093769;28;20193;-78
2022/08/06 00:24:57;;;;;;;20.83;19.52;;;;;;;;;;5093619;28;20609;-78
2022/08/06 00:27:24;;;;;;;20.13;18.92;;;;;;;;;;5093660;28;20198;-77
2022/08/06 00:29:51;;;;;;;20.92;19.63;;;;;;;;;;5093493;28;20255;-78
2022/08/06 00:32:18;;;;;;;20.80;19.50;;;;;;;;;;5093499;28;20652;-78
2022/08/06 00:34:45;;;;;;;20.85;19.55;;;;;;;;;;5093488;28;20229;-79
2022/08/06 00:37:12;;;;;;;20.88;19.67;;;;;;;;;;5093424;28;20284;-77
2022/08/06 00:39:40;;;;;;;20.88;19.67;;;;;;;;;;5092738;28;20201;-77
2022/08/06 00:42:08;;;;;;;20.88;19.67;;;;;;;;;;5093333;28;20193;-78
2022/08/06 00:44:35;;;;;;;21.10;19.88;;;;;;;;;;5093282;28;20194;-78
2022/08/06 00:47:02;;;;;;;20.67;19.48;;;;;;;;;;5093255;28;20228;-78
2022/08/06 00:49:29;;;;;;;20.75;19.55;;;;;;;;;;5093111;28;20263;-78
2022/08/06 00:51:56;;;;;;;21.38;20.08;;;;;;;;;;5093154;28;20190;-78
2022/08/06 00:54:23;;;;;;;21.15;19.88;;;;;;;;;;5093222;28;20193;-78
2022/08/06 00:56:51;;;;;;;21.90;20.60;;;;;;;;;;5092982;28;20618;-76
2022/08/06 00:59:18;;;;;;;21.60;20.30;;;;;;;;;;5093070;28;20194;-77
2022/08/06 01:01:45;;;;;;;20.95;19.65;;;;;;;;;;5092966;28;20201;-78
2022/08/06 01:04:12;;;;;;;20.73;19.52;;;;;;;;;;5092953;28;20247;-76
2022/08/06 01:06:39;;;;;;;19.95;18.85;;;;;;;;;;5093145;28;20225;-76
2022/08/06 01:09:06;;;;;;;20.60;19.40;;;;;;;;;;5092879;28;20194;-78
2022/08/06 01:11:33;;;;;;;20.70;19.50;;;;;;;;;;5093028;28;20248;-78
2022/08/06 01:14:02;;;;;;;20.45;19.25;;;;;;;;;;5093002;28;20255;-78
2022/08/06 01:16:34;;;;;;;19.67;18.58;;;;;;;;;;5092813;28;20643;-78
2022/08/06 01:19:04;;;;;;;19.85;18.75;;;;;;;;;;5092947;28;20190;-79
2022/08/06 01:21:43;;;;;;;19.63;18.52;;;;;;;;;;5093188;28;20205;-78
2022/08/06 01:24:31;;;;;;;19.88;18.77;;;;;;;;;;5092593;28;20192;-76
2022/08/06 01:27:04;;;;;;;19.17;18.17;;;;;;;;;;5092621;28;20190;-78
2022/08/06 01:29:36;;;;;;;19.33;18.25;;;;;;;;;;5092500;28;20186;-77
2022/08/06 01:32:05;;;;;;;19.05;18.05;;;;;;;;;;5092467;28;20193;-77
2022/08/06 01:34:34;;;;;;;18.67;17.67;;;;;;;;;;5092657;28;20258;-78
2022/08/06 01:37:04;;;;;;;18.35;17.35;;;;;;;;;;5092678;28;20197;-78
2022/08/06 01:39:33;;;;;;;18.40;17.40;;;;;;;;;;5092355;28;20611;-78
2022/08/06 01:42:02;;;;;;;18.45;17.45;;;;;;;;;;5092301;28;20194;-77
2022/08/06 01:44:31;;;;;;;18.73;17.73;;;;;;;;;;5092487;28;20198;-78
2022/08/06 01:47:02;;;;;;;19.17;18.08;;;;;;;;;;5092582;28;20190;-78
2022/08/06 01:49:31;;;;;;;18.80;17.73;;;;;;;;;;5092974;28;20181;-77
2022/08/06 01:51:58;;;;;;;18.42;17.42;;;;;;;;;;5091592;28;20619;-79
2022/08/06 01:54:26;;;;;;;18.45;17.45;;;;;;;;;;5092177;28;20201;-77
2022/08/06 01:56:55;;;;;;;19.23;18.13;;;;;;;;;;5092144;28;20193;-76
2022/08/06 01:59:24;;;;;;;18.60;17.60;;;;;;;;;;5092421;28;20205;-78
2022/08/06 02:01:53;;;;;;;18.33;17.33;;;;;;;;;;5092052;28;20571;-77
2022/08/06 02:04:23;;;;;;;18.05;17.10;;;;;;;;;;5092331;28;20238;-77
2022/08/06 02:06:51;;;;;;;17.95;17.05;;;;;;;;;;5092054;28;20254;-78
2022/08/06 02:09:19;;;;;;;17.88;16.98;;;;;;;;;;5092047;28;20229;-78
2022/08/06 02:11:55;;;;;;;17.80;16.90;;;;;;;;;;5091876;28;20221;-78
2022/08/06 02:14:24;;;;;;;17.55;16.65;;;;;;;;;;5092034;28;20182;-76
2022/08/06 02:16:51;;;;;;;17.38;16.48;;;;;;;;;;5091645;28;20239;-78
2022/08/06 02:19:20;;;;;;;17.55;16.65;;;;;;;;;;5092271;28;20323;-77
2022/08/06 02:21:49;;;;;;;17.88;16.98;;;;;;;;;;5091893;28;20209;-77
2022/08/06 02:24:16;;;;;;;17.25;16.45;;;;;;;;;;5091891;28;20599;-78
2022/08/06 02:26:44;;;;;;;17.38;16.58;;;;;;;;;;5091888;28;20244;-78
2022/08/06 02:29:12;;;;;;;17.20;16.40;;;;;;;;;;5091816;28;20198;-79
2022/08/06 02:31:39;;;;;;;17.20;16.40;;;;;;;;;;5092015;28;20244;-77
2022/08/06 02:34:06;;;;;;;17.05;16.25;;;;;;;;;;5091789;28;20224;-78
2022/08/06 02:36:36;;;;;;;16.92;16.13;;;;;;;;;;5091786;28;20656;-78
2022/08/06 02:39:07;;;;;;;16.88;16.08;;;;;;;;;;5092117;28;20201;-79
2022/08/06 02:41:38;;;;;;;16.90;16.10;;;;;;;;;;5092110;28;20190;-78
2022/08/06 02:44:07;;;;;;;16.70;15.90;;;;;;;;;;5091759;28;20186;-77
2022/08/06 02:46:38;;;;;;;16.65;15.85;;;;;;;;;;5091635;28;20236;-78
2022/08/06 02:49:10;;;;;;;16.67;15.88;;;;;;;;;;5091719;28;20239;-78
2022/08/06 02:51:39;;;;;;;16.77;15.98;;;;;;;;;;5091556;28;20772;-79
2022/08/06 02:54:10;;;;;;;16.67;15.90;;;;;;;;;;5091614;28;20201;-77
2022/08/06 02:56:38;;;;;;;16.58;15.88;;;;;;;;;;5091894;28;20232;-78
2022/08/06 02:59:06;;;;;;;16.35;15.65;;;;;;;;;;5091891;28;20200;-79
2022/08/06 03:01:35;;;;;;;16.55;15.85;;;;;;;;;;5091632;28;20194;-77
2022/08/06 03:04:03;;;;;;;16.05;15.35;;;;;;;;;;5095273;28;20277;-78
2022/08/06 03:06:32;;;;;;;16.80;16.10;;;;;;;;;;5095250;28;20212;-79
2022/08/06 03:09:00;;;;;;;16.35;15.65;;;;;;;;;;5095154;28;20190;-78
2022/08/06 03:11:30;;;;;;;16.60;15.90;;;;;;;;;;5095082;28;20726;-78
2022/08/06 03:13:57;;;;;;;16.42;15.73;;;;;;;;;;5095037;28;20205;-78
2022/08/06 03:16:25;;;;;;;16.63;15.93;;;;;;;;;;5095063;28;20198;-78
2022/08/06 03:18:53;;;;;;;16.38;15.68;;;;;;;;;;5054680;28;20191;-77
2022/08/06 03:21:22;;;;;;;16.33;15.63;;;;;;;;;;5054728;28;20195;-77
2022/08/06 03:23:50;;;;;;;16.40;15.70;;;;;;;;;;5054658;28;20191;-78
2022/08/06 03:26:17;;;;;;;16.75;15.95;;;;;;;;;;5054565;28;20657;-78
2022/08/06 03:28:46;;;;;;;16.65;15.90;;;;;;;;;;5054910;28;20566;-78
2022/08/06 03:31:14;;;;;;;16.85;16.05;;;;;;;;;;5054369;28;20308;-77
2022/08/06 03:33:41;;;;;;;16.80;16.00;;;;;;;;;;5054452;28;20203;-77
2022/08/06 03:36:10;;;;;;;16.55;15.80;;;;;;;;;;5054390;28;20249;-79
2022/08/06 03:38:39;;;;;;;16.15;15.45;;;;;;;;;;5054385;28;20198;-78
2022/08/06 03:41:07;;;;;;;16.88;16.08;;;;;;;;;;5054322;28;20191;-77
2022/08/06 03:43:35;;;;;;;16.73;15.93;;;;;;;;;;5054272;28;20202;-76
2022/08/06 03:46:05;;;;;;;15.45;14.75;;;;;;;;;;5054280;28;20191;-77
2022/08/06 03:48:34;;;;;;;15.75;15.05;;;;;;;;;;5054188;28;20199;-79
2022/08/06 03:51:02;;;;;;;15.93;15.23;;;;;;;;;;5054094;28;20245;-76
2022/08/06 03:53:33;;;;;;;17.20;16.38;;;;;;;;;;5054018;28;20199;-77
2022/08/06 03:56:01;;;;;;;17.40;16.50;;;;;;;;;;5054112;28;20187;-77
2022/08/06 03:58:28;;;;;;;17.40;16.50;;;;;;;;;;5053951;28;20619;-78
2022/08/06 04:00:58;;;;;;;17.73;16.80;;;;;;;;;;5053944;28;20241;-78
2022/08/06 04:03:26;;;;;;;17.83;16.83;;;;;;;;;;5053921;28;20206;-77
2022/08/06 04:05:54;;;;;;;18.63;17.52;;;;;;;;;;5053793;28;20207;-78
2022/08/06 04:08:21;;;;;;;18.90;17.80;;;;;;;;;;5053872;28;20260;-78
2022/08/06 04:10:49;;;;;;;19.35;18.25;;;;;;;;;;5053635;28;20226;-77
2022/08/06 04:13:17;;;;;;;19.98;18.77;;;;;;;;;;5053035;28;20190;-78
2022/08/06 04:15:44;;;;;;;19.42;18.23;;;;;;;;;;5053379;28;20195;-78
2022/08/06 04:18:12;;;;;;;19.92;18.73;;;;;;;;;;5082817;28;20271;-79
2022/08/06 04:20:42;;;;;;;19.85;18.65;;;;;;;;;;5093764;28;20710;-78
2022/08/06 04:23:09;;;;;;;19.30;18.10;;;;;;;;;;5093715;28;20246;-76
2022/08/06 04:25:39;;;;;;;21.00;19.70;;;;;;;;;;5093695;28;20240;-79
2022/08/06 04:28:07;;;;;;;20.08;18.77;;;;;;;;;;5093951;28;20571;-78
2022/08/06 04:30:35;;;;;;;19.98;18.67;;;;;;;;;;5093531;28;20683;-78
2022/08/06 04:33:03;;;;;;;20.70;19.40;;;;;;;;;;5093519;28;20194;-77
2022/08/06 04:35:30;;;;;;;20.55;19.25;;;;;;;;;;5093865;28;20553;-79
2022/08/06 04:37:59;;;;;;;20.33;19.02;;;;;;;;;;5093418;28;20733;-77
2022/08/06 04:40:27;;;;;;;20.58;19.27;;;;;;;;;;5093403;28;20659;-78
2022/08/06 04:42:54;;;;;;;20.35;19.05;;;;;;;;;;5093344;28;20197;-79
2022/08/06 04:45:22;;;;;;;22.17;20.77;;;;;;;;;;5093227;28;20579;-78
2022/08/06 04:47:49;;;;;;;21.38;19.98;;;;;;;;;;5093246;28;20667;-78
2022/08/06 04:50:16;;;;;;;21.23;19.85;;;;;;;;;;5093527;28;20591;-79
2022/08/06 04:52:43;;;;;;;21.48;20.08;;;;;;;;;;5093103;28;20229;-79
2022/08/06 04:55:12;;;;;;;21.42;20.02;;;;;;;;;;5093121;28;20620;-78
2022/08/06 04:57:39;;;;;;;21.95;20.45;;;;;;;;;;5093036;28;20660;-78
2022/08/06 05:00:06;;;;;;;21.27;19.88;;;;;;;;;;5093026;28;20243;-79
2022/08/06 05:02:33;;;;;;;21.92;20.42;;;;;;;;;;5093104;28;20277;-77
2022/08/06 05:05:00;;;;;;;22.02;20.52;;;;;;;;;;5092954;28;20255;-79
2022/08/06 05:07:28;;;;;;;22.00;20.50;;;;;;;;;;5092944;28;20193;-79
2022/08/06 05:09:56;;;;;;;21.85;20.35;;;;;;;;;;5092886;28;20673;-79
2022/08/06 05:12:26;;;;;;;21.75;20.25;;;;;;;;;;5092727;28;20225;-80
2022/08/06 05:14:55;;;;;;;21.63;20.13;;;;;;;;;;5092727;28;20190;-76
2022/08/06 05:17:23;;;;;;;20.95;19.55;;;;;;;;;;5092683;28;20230;-80
2022/08/06 05:19:52;;;;;;;20.48;19.08;;;;;;;;;;5092665;28;20193;-80
2022/08/06 05:22:20;;;;;;;20.73;19.27;;;;;;;;;;5092990;28;20229;-77
2022/08/06 05:24:48;;;;;;;20.70;19.30;;;;;;;;;;5092932;28;20194;-77
2022/08/06 05:27:15;;;;;;;20.60;19.10;;;;;;;;;;5092788;28;20257;-80
2022/08/06 05:29:43;;;;;;;21.13;19.63;;;;;;;;;;5092485;28;20204;-78
2022/08/06 05:32:10;;;;;;;20.27;18.88;;;;;;;;;;5092357;28;20706;-79
2022/08/06 05:34:37;;;;;;;20.90;19.40;;;;;;;;;;5092765;28;20311;-77
2022/08/06 05:37:04;;;;;;;20.27;18.88;;;;;;;;;;5092675;28;20194;-80
2022/08/06 05:39:32;;;;;;;21.95;20.45;;;;;;;;;;5093203;28;20201;-80
2022/08/06 05:41:58;;;;;;;22.40;20.80;;;;;;;;;;5092331;28;20247;-80
2022/08/06 05:44:25;;;;;;;22.05;20.55;;;;;;;;;;5092561;28;20194;-78
2022/08/06 05:46:56;;;;;;;21.67;20.27;;;;;;;;;;5092371;28;20201;-80
2022/08/06 05:49:26;;;;;;;21.98;20.48;;;;;;;;;;5092881;28;20194;-80
2022/08/06 05:51:57;;;;;;;21.67;20.23;;;;;;;;;;5092490;28;20582;-77
2022/08/06 05:54:31;;;;;;;21.52;20.13;;;;;;;;;;5092588;28;20228;-77
2022/08/06 05:57:01;;;;;;;20.40;19.10;;;;;;;;;;5092659;28;20196;-80
2022/08/06 05:59:29;;;;;;;20.20;18.90;;;;;;;;;;5092362;28;20197;-78
2022/08/06 06:01:58;;;;;;;20.23;18.92;;;;;;;;;;5092340;28;20193;-79
2022/08/06 06:04:25;;;;;;;22.08;20.67;;;;;;;;;;5092184;28;20248;-77
2022/08/06 06:06:52;;;;;;;21.80;20.40;;;;;;;;;;5092095;28;20194;-77
2022/08/06 06:09:20;;;;;;;21.08;19.77;;;;;;;;;;5092123;28;20197;-80
2022/08/06 06:11:48;;;;;;;21.17;19.77;;;;;;;;;;5092310;28;20229;-79
2022/08/06 06:14:27;;;;;;;22.38;20.98;;;;;;;;;;5092320;28;20193;-78
2022/08/06 06:16:59;;;;;;;22.08;20.60;;;;;;;;;;5091959;28;20229;-79
2022/08/06 06:19:31;;;;;;;21.50;20.10;;;;;;;;;;5092325;28;20638;-78
2022/08/06 06:22:03;;;;;;;22.15;20.65;;;;;;;;;;5092102;28;20225;-76
2022/08/06 06:24:32;;;;;;;21.67;20.20;;;;;;;;;;5091991;28;20192;-81
2022/08/06 06:27:02;;;;;;;21.95;20.45;;;;;;;;;;5091964;28;20194;-79
2022/08/06 06:29:35;;;;;;;22.17;20.67;;;;;;;;;;5092010;28;20660;-79
2022/08/06 06:32:06;;;;;;;21.42;20.02;;;;;;;;;;5092029;28;20695;-82
2022/08/06 06:34:41;;;;;;;22.33;20.83;;;;;;;;;;5092328;28;20551;-81
2022/08/06 06:37:13;;;;;;;21.58;20.08;;;;;;;;;;5093363;28;20258;-81
2022/08/06 06:39:41;;;;;;;21.42;20.02;;;;;;;;;;5095894;28;20200;-80
2022/08/06 06:42:10;;;;;;;21.30;19.88;;;;;;;;;;5095743;28;20675;-80
2022/08/06 06:44:40;;;;;;;21.02;19.63;;;;;;;;;;5096210;28;20200;-80
2022/08/06 06:47:17;;;;;;;21.20;19.80;;;;;;;;;;5095689;28;20289;-79
2022/08/06 06:49:47;;;;;;;20.95;19.65;;;;;;;;;;5096254;28;20190;-80
2022/08/06 06:52:17;;;;;;;20.88;19.48;;;;;;;;;;5095482;28;20676;-78
2022/08/06 06:54:47;;;;;;;19.90;18.60;;;;;;;;;;5096176;28;20182;-80
2022/08/06 06:57:16;;;;;;;20.35;19.05;;;;;;;;;;5095519;28;20205;-75
2022/08/06 06:59:45;;;;;;;20.77;19.45;;;;;;;;;;5095647;28;20198;-79
2022/08/06 07:02:16;;;;;;;20.65;19.25;;;;;;;;;;5095779;28;20193;-80
2022/08/06 07:04:43;;;;;;;20.33;19.02;;;;;;;;;;5095297;28;20197;-80
2022/08/06 07:07:12;;;;;;;20.15;18.85;;;;;;;;;;5095612;28;20610;-81
2022/08/06 07:09:39;;;;;;;20.40;19.10;;;;;;;;;;5095206;28;20655;-79
2022/08/06 07:12:08;;;;;;;20.95;19.55;;;;;;;;;;5095131;28;20234;-80
2022/08/06 07:14:37;;;;;;;20.88;19.48;;;;;;;;;;5095165;28;20289;-81
2022/08/06 07:17:04;;;;;;;20.38;18.98;;;;;;;;;;5095264;28;20291;-76
2022/08/06 07:19:31;;;;;;;20.35;19.02;;;;;;;;;;5095225;28;20190;-78
2022/08/06 07:21:59;;;;;;;20.50;19.10;;;;;;;;;;5095100;28;20201;-79
2022/08/06 07:24:30;;;;;;;20.30;18.80;;;;;;;;;;5094936;28;20194;-76
2022/08/06 07:26:58;;;;;;;20.75;19.35;;;;;;;;;;5095651;28;20186;-75
2022/08/06 07:29:26;;;;;;;20.33;18.92;;;;;;;;;;5095113;28;20193;-81
2022/08/06 07:31:54;;;;;;;20.42;19.02;;;;;;;;;;5095027;28;20230;-78
2022/08/06 07:34:22;;;;;;;20.75;19.35;;;;;;;;;;5094815;28;20189;-74
2022/08/06 07:36:50;;;;;;;20.50;19.10;;;;;;;;;;5094907;28;20194;-78
2022/08/06 07:39:20;;;;;;;20.55;19.15;;;;;;;;;;5094684;28;20190;-77
2022/08/06 07:41:48;;;;;;;20.58;19.17;;;;;;;;;;5094615;28;20652;-78
2022/08/06 07:44:15;;;;;;;20.65;19.25;;;;;;;;;;5094562;28;20194;-76
2022/08/06 07:46:48;;;;;;;20.77;19.38;;;;;;;;;;5094644;28;20200;-74
2022/08/06 07:49:15;;;;;;;20.98;19.58;;;;;;;;;;5094370;28;20197;-76
2022/08/06 07:51:44;;;;;;;21.42;19.92;;;;;;;;;;5094311;28;20308;-74
2022/08/06 07:54:11;;;;;;;20.65;19.25;;;;;;;;;;5094392;28;20190;-78
2022/08/06 07:56:40;;;;;;;21.13;19.67;;;;;;;;;;5094283;28;20194;-79
2022/08/06 07:59:09;;;;;;;21.10;19.60;;;;;;;;;;5094650;28;20277;-76
2022/08/06 08:01:37;;;;;;;21.35;19.85;;;;;;;;;;5094280;28;20619;-75
2022/08/06 08:06:49;;;;;;;20.55;19.15;;;;;;;;;;5094552;28;20185;-80
2022/08/06 08:09:17;;;;;;;20.10;18.70;;;;;;;;;;5094277;28;20194;-75
2022/08/06 08:11:45;;;;;;;21.20;19.70;;;;;;;;;;5094323;28;20201;-74
2022/08/06 17:54:54;;;;;;;23.50;21.80;;;;;;;-141.02;51.19;80758.81;5130882;27;20551;-78
2022/08/06 17:57:22;;;;;;;23.70;22.00;;;;;;;-141.02;51.31;80762.69;5130544;27;20256;-78
2022/08/06 17:59:49;;;;;;;22.42;20.83;;;;;;;-141.02;51.36;80782.13;5130135;28;20681;-78
2022/08/06 18:02:16;;;;;;;23.10;21.50;;;;;;;-141.02;51.65;80778.25;5130410;27;20196;-78
2022/08/06 18:04:44;;;;;;;22.98;21.27;;;;;;;-141.02;51.80;80782.13;5130311;28;20279;-78
2022/08/06 18:07:13;;;;;;;22.88;21.17;;;;;;;-141.02;51.77;80813.19;5130369;28;20192;-78
2022/08/06 18:09:41;;;;;;;22.65;20.95;;;;;;;-141.02;51.93;80768.53;5129957;27;20192;-79
2022/08/06 18:12:11;;;;;;;22.77;21.08;;;;;;;-141.02;51.90;80663.69;5130237;28;20275;-79
2022/08/06 18:14:38;;;;;;;22.42;20.77;;;;;;;-141.02;52.04;80820.94;5130255;28;20188;-78
2022/08/06 18:17:05;;;;;;;22.55;20.95;;;;;;;-141.02;52.62;80855.88;5130177;27;20340;-79
2022/08/06 18:19:32;;;;;;;24.30;22.70;;;;;;;-141.02;52.93;80861.72;5129805;28;20250;-78
2022/08/06 18:21:59;;;;;;;25.60;24.00;;;;;;;-141.02;53.36;80855.88;5129694;28;20231;-78
2022/08/06 18:24:26;;;;;;;25.30;23.60;;;;;;;-141.02;53.60;80894.72;5129695;27;20224;-79
2022/08/06 18:26:54;;;;;;;23.20;21.70;;;;;;;-141.02;53.86;80906.38;5129658;28;20283;-79
2022/08/06 18:29:22;;;;;;;22.90;21.40;;;;;;;-141.02;54.19;80918.00;5129895;28;20189;-78
2022/08/06 18:31:49;;;;;;;24.73;23.13;;;;;;;-141.02;54.34;80947.13;5129578;27;20193;-79
2022/08/06 18:34:16;;;;;;;25.55;23.85;;;;;;;-141.02;54.82;80962.66;5129487;28;20548;-78
2022/08/06 18:36:43;;;;;;;22.10;20.60;;;;;;;-141.02;55.49;81003.44;5129483;28;20650;-77
2022/08/06 18:39:12;;;;;;;21.27;19.88;;;;;;;-141.02;55.53;80989.84;5129745;27;20192;-78
2022/08/06 18:41:39;;;;;;;21.23;19.83;;;;;;;-141.02;54.74;80989.84;5129698;28;20254;-77
2022/08/06 18:44:06;;;;;;;21.02;19.58;;;;;;;-141.02;55.04;80898.59;5129317;28;20230;-79
2022/08/06 18:46:34;;;;;;;21.63;20.13;;;;;;;-141.02;55.50;81015.06;5129284;27;20197;-78
2022/08/06 18:49:01;;;;;;;21.13;19.63;;;;;;;-141.02;55.63;80997.59;5129492;28;20639;-78
2022/08/06 18:51:28;;;;;;;21.30;19.80;;;;;;;-141.02;55.72;81005.38;5129442;28;20199;-79
2022/08/06 18:53:55;;;;;;;21.50;20.00;;;;;;;-141.02;55.70;81018.97;5125940;27;20229;-78
2022/08/06 18:56:22;;;;;;;24.67;23.08;;;;;;;-141.02;55.66;81034.50;5115721;28;20196;-78
2022/08/06 18:58:49;;;;;;;24.45;22.85;;;;;;;-141.02;55.98;81017.03;5115670;28;20197;-79
2022/08/06 19:01:16;;;;;;;23.05;21.55;;;;;;;-141.02;56.24;81051.97;5115657;28;20224;-79
2022/08/06 19:03:45;;;;;;;23.15;21.65;;;;;;;-141.02;56.56;81013.13;5115513;28;20228;-78
2022/08/06 19:06:12;;;;;;;22.85;21.27;;;;;;;-141.02;56.88;81050.03;5115548;28;20197;-79
2022/08/06 19:08:39;;;;;;;21.42;19.92;;;;;;;-141.02;56.74;81061.66;5115448;28;20276;-79
2022/08/06 19:11:06;;;;;;;22.55;21.05;;;;;;;-141.02;56.82;81069.44;5115455;28;20608;-78
2022/08/06 19:13:33;;;;;;;23.33;21.83;;;;;;;-141.02;56.80;81042.25;5115392;28;20190;-79
2022/08/06 19:16:00;;;;;;;22.15;20.65;;;;;;;-141.02;56.76;81036.44;5115332;28;20189;-78
2022/08/06 19:18:27;;;;;;;21.98;20.48;;;;;;;-141.02;56.88;81065.56;5115285;28;20244;-78
2022/08/06 19:20:56;;;;;;;22.10;20.60;;;;;;;-141.02;57.07;81030.59;5114936;28;20197;-79
2022/08/06 19:23:23;;;;;;;22.30;20.80;;;;;;;-141.02;57.14;81055.84;5114853;28;20593;-78
2022/08/06 19:25:50;;;;;;;21.95;20.45;;;;;;;-141.02;57.22;81073.31;5115179;28;20547;-79
2022/08/06 19:28:17;;;;;;;22.25;20.73;;;;;;;-141.02;57.32;81065.56;5114820;28;20193;-79
2022/08/06 19:30:44;;;;;;;21.13;19.63;;;;;;;-141.02;57.05;81051.97;5115102;28;20194;-78
2022/08/06 19:33:11;;;;;;;20.33;18.92;;;;;;;-141.02;57.05;81073.31;5114777;28;20255;-78
2022/08/06 19:35:38;;;;;;;20.92;19.52;;;;;;;-141.02;56.96;81061.66;5114761;28;20246;-79
2022/08/06 19:38:07;;;;;;;20.75;19.35;;;;;;;-141.02;57.15;81057.78;5114602;28;20677;-79
2022/08/06 19:43:19;;;;;;;20.88;19.38;;;;;;;-141.02;57.78;81077.22;5114485;28;20757;-79
2022/08/06 19:45:47;;;;;;;21.08;19.58;;;;;;;-141.02;58.20;81098.56;5114543;28;20734;-79
2022/08/06 19:48:15;;;;;;;21.40;19.90;;;;;;;-141.02;58.24;81114.09;5114417;28;20280;-78
2022/08/06 19:50:43;;;;;;;21.60;20.10;;;;;;;-141.02;58.34;81100.50;5114396;28;20205;-79
2022/08/06 19:53:11;;;;;;;21.85;20.35;;;;;;;-141.02;58.22;81104.38;5114159;28;20653;-79
2022/08/06 19:55:39;;;;;;;21.77;20.27;;;;;;;-141.02;58.04;81088.84;5114621;27;20192;-79
2022/08/06 19:58:07;;;;;;;21.60;20.17;;;;;;;-141.02;58.31;81092.75;5114531;28;20197;-79
2022/08/06 20:00:34;;;;;;;22.17;20.67;;;;;;;-141.02;58.62;81077.22;5114483;28;20193;-79
2022/08/06 20:03:01;;;;;;;20.98;19.58;;;;;;;-141.02;58.55;81069.44;5114034;28;20231;-79
2022/08/06 20:05:28;;;;;;;21.00;19.55;;;;;;;-141.02;58.98;81096.63;5113909;28;20193;-79
2022/08/06 20:07:55;;;;;;;21.00;19.58;;;;;;;-141.02;59.40;81104.38;5113553;28;20201;-79
2022/08/06 20:10:24;;;;;;;20.77;19.30;;;;;;;-141.02;100.00;55844.97;5114001;28;20658;-79
2022/08/06 20:12:51;;;;;;;21.60;20.10;;;;;;;-141.02;100.00;55844.97;5113885;28;20189;-79
2022/08/06 20:15:19;;;;;;;21.08;19.63;;;;;;;-141.02;59.08;81100.50;5114216;28;20257;-79
2022/08/06 20:17:48;;;;;;;20.77;19.35;;;;;;;-141.02;59.46;81131.56;5114095;28;20203;-79
2022/08/06 20:20:16;;;;;;;21.30;19.80;;;;;;;-141.02;59.87;80910.25;5113783;28;20689;-79
2022/08/06 20:22:44;;;;;;;21.10;19.60;;;;;;;-141.02;59.95;81100.50;5113638;28;20669;-79
2022/08/06 20:25:15;;;;;;;21.05;19.55;;;;;;;-141.02;60.07;81100.50;5113957;28;20229;-78
2022/08/06 20:27:44;;;;;;;20.98;19.48;;;;;;;-141.02;100.00;55844.97;5114520;28;20272;-79
2022/08/06 20:30:11;;;;;;;20.85;19.35;;;;;;;-141.02;60.24;81119.91;5113873;28;20587;-79
2022/08/06 20:32:39;;;;;;;21.10;19.60;;;;;;;-141.02;60.32;81143.22;5113800;28;20581;-79
2022/08/06 20:35:08;;;;;;;20.92;19.42;;;;;;;-141.02;60.40;81100.50;5113473;28;20251;-79
2022/08/06 20:37:35;;;;;;;20.92;19.42;;;;;;;-141.02;60.62;81108.28;5113715;28;20239;-78
2022/08/06 20:40:02;;;;;;;20.85;19.35;;;;;;;-141.02;61.09;81158.75;5113409;28;20246;-79
2022/08/06 20:42:31;;;;;;;20.92;19.42;;;;;;;-141.02;61.35;81133.50;5113653;28;20261;-79
2022/08/06 20:45:00;;;;;;;20.55;19.05;;;;;;;-141.02;61.69;81104.38;5113578;28;20311;-79
2022/08/06 20:47:27;;;;;;;20.70;19.20;;;;;;;-141.02;61.81;81135.44;5113187;28;20236;-79
2022/08/06 20:49:55;;;;;;;20.52;19.02;;;;;;;-141.02;61.99;81176.22;5113509;28;20193;-78
2022/08/06 20:52:23;;;;;;;21.55;20.05;;;;;;;-141.02;62.55;81207.28;5113085;28;20659;-79
2022/08/06 20:54:50;;;;;;;21.17;19.67;;;;;;;-141.02;63.37;81182.03;5113474;28;20283;-79
2022/08/06 20:57:17;;;;;;;21.30;19.80;;;;;;;-141.02;64.10;81240.28;5113394;28;20285;-78
2022/08/06 20:59:44;;;;;;;20.65;19.15;;;;;;;-141.02;64.63;81267.47;5113338;28;20193;-78
2022/08/06 21:02:13;;;;;;;20.67;19.17;;;;;;;-141.02;65.44;81199.50;5112994;28;20697;-78
2022/08/06 21:04:40;;;;;;;20.70;19.20;;;;;;;-141.02;65.01;81255.81;5112790;28;20220;-78
2022/08/06 21:07:07;;;;;;;20.90;19.40;;;;;;;-141.02;64.46;81240.28;5113273;28;20193;-79
2022/08/06 21:09:34;;;;;;;21.20;19.70;;;;;;;-141.02;64.39;81189.81;5113242;28;20201;-79
2022/08/06 21:12:01;;;;;;;20.88;19.38;;;;;;;-141.02;64.84;81236.41;5112847;28;20229;-79
2022/08/06 21:14:28;;;;;;;21.70;20.10;;;;;;;-141.02;64.66;81209.22;5113111;28;20193;-78
2022/08/06 21:16:55;;;;;;;21.27;19.73;;;;;;;-141.02;64.53;81213.09;5112509;28;20193;-78
2022/08/06 21:19:23;;;;;;;21.70;20.10;;;;;;;-141.02;64.35;81209.22;5113111;28;20246;-79
2022/08/06 21:21:51;;;;;;;21.60;20.08;;;;;;;-141.02;100.00;55844.97;5112703;28;20193;-79
2022/08/06 21:24:18;;;;;;;22.33;20.73;;;;;;;-141.02;100.00;55844.97;5112629;28;20224;-77
2022/08/06 21:26:45;;;;;;;22.25;20.65;;;;;;;-141.02;64.35;81209.22;5112694;28;20240;-78
2022/08/06 21:29:12;;;;;;;21.65;20.15;;;;;;;-141.02;64.46;81220.88;5112624;28;20189;-77
2022/08/06 21:31:39;;;;;;;22.00;20.50;;;;;;;-141.02;64.46;81220.88;5112592;28;20189;-78
2022/08/06 21:34:06;;;;;;;21.50;20.10;;;;;;;-141.02;65.69;81248.06;5112547;28;20238;-78
2022/08/06 21:36:35;;;;;;;22.75;21.15;;;;;;;-141.02;65.69;81248.06;5112855;28;20200;-78
2022/08/06 21:39:02;;;;;;;23.08;21.48;;;;;;;-141.02;67.05;81283.00;5112849;28;20718;-78
2022/08/06 21:41:30;;;;;;;22.95;21.35;;;;;;;-141.02;66.97;81275.25;5112810;28;20197;-77
2022/08/06 21:43:58;;;;;;;22.70;21.10;;;;;;;-141.02;66.73;81288.81;5112401;28;20231;-77
2022/08/06 21:46:27;;;;;;;22.27;20.67;;;;;;;-141.02;66.76;81259.69;5112396;28;20228;-78
2022/08/06 21:48:55;;;;;;;22.65;21.05;;;;;;;-141.02;67.35;81754.84;5112681;28;20790;-77
2022/08/06 21:51:23;;;;;;;23.00;21.40;;;;;;;-141.02;67.70;81306.31;5112649;28;20197;-77
2022/08/06 21:53:51;;;;;;;23.33;21.63;;;;;;;-141.02;68.15;81131.56;5112295;28;20229;-77
2022/08/06 21:56:20;;;;;;;22.85;21.25;;;;;;;-141.02;68.61;81325.72;5112675;28;20201;-78
2022/08/06 21:58:48;;;;;;;23.80;22.10;;;;;;;-141.02;69.07;81321.84;5112655;28;20246;-78
2022/08/06 22:01:15;;;;;;;22.48;20.88;;;;;;;-141.02;69.58;81298.53;5112654;28;20281;-78
2022/08/06 22:03:42;;;;;;;22.95;21.35;;;;;;;-141.02;69.78;81317.94;5112743;28;20270;-77
2022/08/06 22:06:10;;;;;;;23.80;22.20;;;;;;;-141.02;70.02;81304.34;5112623;28;20189;-78
2022/08/06 22:08:37;;;;;;;23.92;22.33;;;;;;;-141.02;69.64;81337.38;5112530;28;20193;-77
2022/08/06 22:11:05;;;;;;;23.00;21.40;;;;;;;-141.02;69.40;81306.31;5112262;28;20665;-78
2022/08/06 22:13:33;;;;;;;22.85;21.25;;;;;;;-141.02;69.42;81341.25;5112529;28;20201;-79
2022/08/06 22:16:00;;;;;;;22.60;21.10;;;;;;;-141.02;69.11;81319.91;5112141;28;20284;-78
2022/08/06 22:18:27;;;;;;;22.95;21.35;;;;;;;-141.02;69.55;81349.00;5112506;28;20597;-78
2022/08/06 22:20:54;;;;;;;23.27;21.67;;;;;;;-141.02;69.23;81306.31;5112092;28;20229;-77
2022/08/06 22:23:21;;;;;;;22.70;21.10;;;;;;;-141.02;68.75;81300.47;5112493;28;20197;-78
2022/08/06 22:25:48;;;;;;;24.13;22.52;;;;;;;-141.02;68.34;81335.44;5112083;28;20705;-78
2022/08/06 22:28:17;;;;;;;23.98;22.38;;;;;;;-141.02;68.21;81323.78;5112326;28;20197;-77
2022/08/06 22:30:44;;;;;;;24.55;22.85;;;;;;;-141.02;67.69;81325.72;5115290;28;20289;-78
2022/08/06 22:33:15;;;;;;;25.35;23.65;;;;;;;-141.02;67.53;81337.38;5116187;28;20225;-79
2022/08/06 22:35:44;;;;;;;23.92;22.33;;;;;;;-141.02;67.30;81271.34;5116173;28;20189;-78
2022/08/06 22:38:11;;;;;;;24.25;22.55;;;;;;;-141.02;67.39;81286.88;5116134;28;20197;-79
2022/08/06 22:40:40;;;;;;;24.80;23.10;;;;;;;-141.02;67.47;80918.00;5115739;28;20228;-78
2022/08/06 22:43:09;;;;;;;23.65;22.05;;;;;;;-141.02;67.79;81306.31;5115965;28;20197;-78